createdAt,value
2019-04-16T00:03:09.479Z,11.3
2019-04-16T00:08:32.126Z,12.9
2019-04-16T00:13:54.915Z,13.1
2019-04-16T00:19:17.467Z,13.5
2019-04-16T00:24:40.131Z,10.7
2019-04-16T00:30:04.841Z,10.5
2019-04-16T00:35:25.363Z,11.7
2019-04-16T00:40:48.132Z,11.9
2019-04-16T00:46:12.061Z,13
2019-04-16T00:51:33.904Z,14
2019-04-16T00:56:56.719Z,14
2019-04-16T01:02:19.509Z,14.1
2019-04-16T01:07:42.328Z,12.1
2019-04-16T01:13:05.246Z,13
2019-04-16T01:18:28.567Z,12.9
2019-04-16T01:23:51.163Z,14.1
2019-04-16T01:29:13.787Z,12.4
2019-04-16T01:34:36.444Z,11.6
2019-04-16T01:39:59.140Z,12.6
2019-04-16T01:45:21.813Z,15.3
2019-04-16T01:50:45.044Z,12.3
2019-04-16T01:56:07.705Z,12.2
2019-04-16T02:01:30.403Z,12.7
2019-04-16T02:06:54.254Z,12.2
2019-04-16T02:12:16.734Z,13.2
2019-04-16T02:17:39.353Z,12.9
2019-04-16T02:23:03.090Z,11.4
2019-04-16T02:28:28.233Z,12.7
2019-04-16T02:33:49.661Z,11
2019-04-16T02:39:12.354Z,12.1
2019-04-16T02:44:35.057Z,12.2
2019-04-16T02:49:58.076Z,15.9
2019-04-16T02:55:20.579Z,13.8
2019-04-16T03:00:43.291Z,11.6
2019-04-16T03:06:07.730Z,12
2019-04-16T03:11:30.295Z,12.1
2019-04-16T03:16:53.965Z,12
2019-04-16T03:22:16.843Z,10.5
2019-04-16T03:27:39.783Z,13.8
2019-04-16T03:33:09.457Z,11.1
2019-04-16T03:38:26.489Z,12.5
2019-04-16T03:43:49.181Z,12.4
2019-04-16T03:49:12.016Z,10.7
2019-04-16T03:54:34.721Z,12.9
2019-04-16T04:00:00.627Z,12.3
2019-04-16T04:05:21.367Z,11.1
2019-04-16T04:10:44.087Z,14.7
2019-04-16T04:16:06.818Z,11
2019-04-16T04:21:30.526Z,13
2019-04-16T04:26:53.392Z,13
2019-04-16T04:32:17.326Z,15.3
2019-04-16T04:37:40.188Z,10.4
2019-04-16T04:43:03.109Z,11.8
2019-04-16T04:48:25.981Z,12.6
2019-04-16T04:53:50.211Z,15
2019-04-16T04:59:11.594Z,12.4
2019-04-16T05:04:34.578Z,9.9
2019-04-16T05:09:57.241Z,9.4
2019-04-16T05:15:21.057Z,11
2019-04-16T05:20:46.673Z,12.7
2019-04-16T05:26:09.773Z,13.6
2019-04-16T05:31:31.165Z,11.7
2019-04-16T05:36:52.978Z,11.1
2019-04-16T05:42:15.719Z,10.7
2019-04-16T05:47:40.575Z,11.7
2019-04-16T05:53:05.344Z,9.7
2019-04-16T05:58:27.449Z,10.5
2019-04-16T06:03:53.268Z,11.3
2019-04-16T06:09:14.768Z,8.3
2019-04-16T06:14:37.175Z,12.7
2019-04-16T06:19:59.786Z,9.9
2019-04-16T06:25:22.525Z,10.9
2019-04-16T06:30:45.209Z,11.8
2019-04-16T06:36:08.949Z,10.5
2019-04-16T06:41:41.362Z,10.6
2019-04-16T06:46:55.268Z,9.2
2019-04-16T06:52:18.203Z,10.5
2019-04-16T06:57:42.835Z,10.2
2019-04-16T07:03:03.588Z,9.8
2019-04-16T07:08:36.714Z,11.3
2019-04-16T07:13:50.604Z,10.6
2019-04-16T07:19:16.723Z,11.2
2019-04-16T07:24:39.919Z,9.1
2019-04-16T07:30:06.504Z,11
2019-04-16T07:35:27.157Z,9.9
2019-04-16T07:40:48.511Z,9.6
2019-04-16T07:46:11.359Z,10.4
2019-04-16T07:51:35.986Z,11.3
2019-04-16T07:56:56.979Z,9.7
2019-04-16T08:02:21.315Z,9.4
2019-04-16T08:07:42.623Z,11.2
2019-04-16T08:13:05.565Z,12
2019-04-16T08:18:28.118Z,9.9
2019-04-16T08:23:52.821Z,11
2019-04-16T08:29:13.979Z,9.9
2019-04-16T08:34:36.707Z,10.4
2019-04-16T08:39:59.379Z,10.7
2019-04-16T08:45:21.998Z,10.1
2019-04-16T08:50:45.189Z,10.4
2019-04-16T08:56:08.882Z,12
2019-04-16T09:01:31.583Z,13.1
2019-04-16T09:06:54.910Z,10.9
2019-04-16T09:12:18.725Z,11.9
2019-04-16T09:17:41.442Z,11.7
2019-04-16T09:23:04.115Z,10.7
2019-04-16T09:28:26.833Z,11.5
2019-04-16T09:33:50.711Z,11.5
2019-04-16T09:39:13.848Z,11.4
2019-04-16T09:44:36.467Z,13.3
2019-04-16T09:49:59.302Z,11.8
2019-04-16T09:55:21.915Z,13.9
2019-04-16T10:00:46.979Z,13.1
2019-04-16T10:06:07.165Z,12.3
2019-04-16T10:11:32.632Z,13.8
2019-04-16T10:16:53.439Z,12
2019-04-16T10:22:16.091Z,13.2
2019-04-16T10:27:38.748Z,12.7
2019-04-16T10:33:01.616Z,13.3
2019-04-16T10:38:24.483Z,15.7
2019-04-16T10:43:47.083Z,15.2
2019-04-16T10:49:10.044Z,13.8
2019-04-16T10:54:33.653Z,14.1
2019-04-16T10:59:57.416Z,13.9
2019-04-16T11:05:21.128Z,14.6
2019-04-16T11:10:43.995Z,15.4
2019-04-16T11:16:06.699Z,14.2
2019-04-16T11:21:29.416Z,13.9
2019-04-16T11:26:51.960Z,15.2
2019-04-16T11:32:14.655Z,14.5
2019-04-16T11:37:37.204Z,14.2
2019-04-16T11:43:01.087Z,14.5
2019-04-16T11:48:25.012Z,16.799999
2019-04-16T11:53:49.573Z,16.6
2019-04-16T11:59:12.296Z,17.4
2019-04-16T12:04:38.516Z,16
2019-04-16T12:10:01.157Z,18.200001
2019-04-16T12:15:23.767Z,17.6
2019-04-16T12:20:46.404Z,15.9
2019-04-16T12:26:09.966Z,16
2019-04-16T12:31:32.170Z,17.299999
2019-04-16T12:36:55.799Z,18.4
2019-04-16T12:42:19.457Z,17.700001
2019-04-16T12:47:42.141Z,17
2019-04-16T12:53:04.681Z,17.9
2019-04-16T12:58:27.448Z,17.4
2019-04-16T13:03:52.570Z,19.5
2019-04-16T13:09:13.021Z,18
2019-04-16T13:14:37.705Z,17.6
2019-04-16T13:19:58.423Z,17.200001
2019-04-16T13:25:21.024Z,19.200001
2019-04-16T13:30:43.676Z,19.1
2019-04-16T13:36:06.309Z,18.700001
2019-04-16T13:41:28.945Z,17.9
2019-04-16T13:46:51.607Z,19
2019-04-16T13:52:16.951Z,18.700001
2019-04-16T13:57:38.414Z,19
2019-04-16T14:03:01.093Z,18.799999
2019-04-16T14:08:23.812Z,18.6
2019-04-16T14:13:49.877Z,18.700001
2019-04-16T14:19:10.060Z,19.6
2019-04-16T14:24:32.781Z,18.9
2019-04-16T14:29:58.821Z,18.700001
2019-04-16T14:35:32.232Z,19.299999
2019-04-16T14:40:43.098Z,19.700001
2019-04-16T14:46:08.450Z,20.799999
2019-04-16T14:51:29.217Z,19.6
2019-04-16T14:56:52.898Z,22.299999
2019-04-16T15:02:15.561Z,22.1
2019-04-16T15:07:38.226Z,21.1
2019-04-16T15:13:02.012Z,20.4
2019-04-16T15:18:26.694Z,21.1
2019-04-16T15:23:47.442Z,23.5
2019-04-16T15:29:11.052Z,21.1
2019-04-16T15:34:34.439Z,20.6
2019-04-16T15:39:59.461Z,21.6
2019-04-16T15:45:20.790Z,21.799999
2019-04-16T15:50:43.412Z,21.799999
2019-04-16T15:56:06.146Z,20.9
2019-04-16T16:01:28.733Z,22.700001
2019-04-16T16:06:52.093Z,22.200001
2019-04-16T16:12:14.056Z,22
2019-04-16T16:17:36.741Z,20.9
2019-04-16T16:22:59.732Z,20.799999
2019-04-16T16:28:22.026Z,21.799999
2019-04-16T16:33:44.674Z,21.1
2019-04-16T16:39:07.318Z,20.9
2019-04-16T16:44:30.058Z,22.299999
2019-04-16T16:49:52.699Z,21.9
2019-04-16T16:55:15.437Z,22.299999
2019-04-16T17:00:38.169Z,23.9
2019-04-16T17:06:00.852Z,21.799999
2019-04-16T17:11:23.600Z,22
2019-04-16T17:16:46.390Z,22.6
2019-04-16T17:22:09.043Z,24.6
2019-04-16T17:27:31.762Z,23.5
2019-04-16T17:32:54.404Z,23.5
2019-04-16T17:38:17.382Z,23
2019-04-16T17:43:40.150Z,22.700001
2019-04-16T17:49:03.138Z,22.9
2019-04-16T17:54:25.920Z,22.700001
2019-04-16T17:59:48.607Z,24.1
2019-04-16T18:05:11.314Z,23.299999
2019-04-16T18:10:34.563Z,21.6
2019-04-16T18:15:56.707Z,24
2019-04-16T18:21:19.355Z,23.299999
2019-04-16T18:26:42.933Z,21.4
2019-04-16T18:32:05.649Z,22.1
2019-04-16T18:37:28.337Z,21.200001
2019-04-16T18:42:50.967Z,21
2019-04-16T18:48:14.165Z,23.200001
2019-04-16T18:53:36.194Z,23.1
2019-04-16T18:58:59.861Z,22.5
2019-04-16T19:04:22.855Z,25.1
2019-04-16T19:09:45.557Z,22.5
2019-04-16T19:15:08.712Z,22
2019-04-16T19:20:31.380Z,23.5
2019-04-16T19:25:55.030Z,23.1
2019-04-16T19:31:16.927Z,22.799999
2019-04-16T19:36:40.895Z,22.1
2019-04-16T19:42:03.613Z,22.6
2019-04-16T19:47:27.226Z,21.6
2019-04-16T19:52:49.257Z,23.9
2019-04-16T19:58:16.294Z,24.9
2019-04-16T20:03:39.199Z,23
2019-04-16T20:09:03.052Z,23.200001
2019-04-16T20:14:27.899Z,23.9
2019-04-16T20:19:52.284Z,23.799999
2019-04-16T20:25:15.259Z,22
2019-04-16T20:30:38.097Z,22
2019-04-16T20:36:00.864Z,22.299999
2019-04-16T20:41:23.669Z,24.299999
2019-04-16T20:46:46.432Z,22.200001
2019-04-16T20:52:09.662Z,22.9
2019-04-16T20:57:32.479Z,25.4
2019-04-16T21:02:55.272Z,21.700001
2019-04-16T21:08:23.996Z,21.4
2019-04-16T21:13:41.876Z,23.1
2019-04-16T21:19:04.665Z,23.5
2019-04-16T21:24:28.523Z,24
2019-04-16T21:29:51.958Z,22.299999
2019-04-16T21:35:14.757Z,22.9
2019-04-16T21:40:40.976Z,21.799999
2019-04-16T21:46:03.710Z,23.9
2019-04-16T21:51:26.505Z,25.4
2019-04-16T21:56:49.236Z,26.5
2019-04-16T22:02:13.883Z,22.700001
2019-04-16T22:07:35.661Z,23.5
2019-04-16T22:12:58.396Z,24.5
2019-04-16T22:18:21.160Z,25.799999
2019-04-16T22:23:43.915Z,25.799999
2019-04-16T22:29:07.725Z,24.6
2019-04-16T22:34:31.417Z,24.5
2019-04-16T22:39:54.091Z,24.1
2019-04-16T22:45:16.902Z,24.5
2019-04-16T22:50:39.618Z,23.6
2019-04-16T22:56:02.653Z,22.9
2019-04-16T23:01:25.146Z,22.6
2019-04-16T23:06:47.926Z,23.299999
2019-04-16T23:12:11.536Z,25.700001
2019-04-16T23:17:34.265Z,25.299999
2019-04-16T23:22:57.031Z,23.4
2019-04-16T23:28:19.784Z,24
2019-04-16T23:33:43.109Z,21.4
2019-04-16T23:39:05.865Z,24
2019-04-16T23:44:28.533Z,23.1
2019-04-16T23:49:51.246Z,22.9
2019-04-16T23:55:17.441Z,23.1
